createdAt,value
2018-07-28T00:00:31.738Z,26.63
2018-07-28T00:05:24.378Z,26.60
2018-07-28T00:10:16.979Z,26.56
2018-07-28T00:15:10.963Z,26.52
2018-07-28T00:20:04.801Z,26.45
2018-07-28T00:24:57.441Z,26.34
2018-07-28T00:29:49.992Z,26.25
2018-07-28T00:34:42.581Z,26.23
2018-07-28T00:39:35.219Z,26.19
2018-07-28T00:44:27.764Z,26.13
2018-07-28T00:49:20.334Z,26.10
2018-07-28T00:54:12.962Z,26.09
2018-07-28T00:59:05.571Z,26.03
2018-07-28T01:03:58.246Z,25.97
2018-07-28T01:08:51.019Z,25.90
2018-07-28T01:13:43.626Z,25.86
2018-07-28T01:18:36.318Z,25.78
2018-07-28T01:23:28.944Z,25.72
2018-07-28T01:28:21.640Z,25.71
2018-07-28T01:33:14.210Z,25.69
2018-07-28T01:38:06.826Z,25.62
2018-07-28T01:42:59.452Z,25.54
2018-07-28T01:47:52.043Z,25.53
2018-07-28T01:52:44.598Z,25.51
2018-07-28T01:57:37.231Z,25.50
2018-07-28T02:02:29.760Z,25.45
2018-07-28T02:07:22.329Z,25.41
2018-07-28T02:12:14.845Z,25.35
2018-07-28T02:17:07.443Z,25.28
2018-07-28T02:22:01.387Z,25.24
2018-07-28T02:26:53.942Z,25.15
2018-07-28T02:31:46.497Z,25.02
2018-07-28T02:36:39.159Z,24.98
2018-07-28T02:41:31.791Z,25.00
2018-07-28T02:46:24.503Z,24.97
2018-07-28T02:51:17.058Z,24.92
2018-07-28T02:56:09.638Z,24.86
2018-07-28T03:01:02.274Z,24.81
2018-07-28T03:05:55.197Z,24.81
2018-07-28T03:10:47.808Z,24.79
2018-07-28T03:15:40.460Z,24.78
2018-07-28T03:20:33.143Z,24.76
2018-07-28T03:25:25.680Z,24.71
2018-07-28T03:30:18.334Z,24.64
2018-07-28T03:35:10.957Z,24.58
2018-07-28T03:40:03.887Z,24.51
2018-07-28T03:44:56.485Z,24.46
2018-07-28T03:49:49.079Z,24.42
2018-07-28T03:54:41.695Z,24.41
2018-07-28T03:59:34.296Z,24.35
2018-07-28T04:04:26.951Z,24.28
2018-07-28T04:09:19.543Z,24.27
2018-07-28T04:14:12.145Z,24.25
2018-07-28T04:19:05.136Z,24.26
2018-07-28T04:23:57.755Z,24.26
2018-07-28T04:28:50.350Z,24.29
2018-07-28T04:33:42.930Z,24.29
2018-07-28T04:38:35.535Z,24.26
2018-07-28T04:43:28.152Z,24.22
2018-07-28T04:48:20.686Z,24.18
2018-07-28T04:53:13.257Z,24.22
2018-07-28T04:58:06.141Z,24.27
2018-07-28T05:02:58.829Z,24.30
2018-07-28T05:07:51.486Z,24.33
2018-07-28T05:12:44.075Z,24.36
2018-07-28T05:17:36.674Z,24.40
2018-07-28T05:22:29.342Z,24.44
2018-07-28T05:27:21.868Z,24.53
2018-07-28T05:32:14.407Z,24.59
2018-07-28T05:37:07.110Z,24.68
2018-07-28T05:41:59.634Z,24.78
2018-07-28T05:46:52.255Z,24.86
2018-07-28T05:51:44.915Z,24.88
2018-07-28T05:56:37.462Z,24.97
2018-07-28T06:01:30.135Z,25.10
2018-07-28T06:06:22.815Z,25.25
2018-07-28T06:11:15.460Z,25.35
2018-07-28T06:16:08.069Z,25.33
2018-07-28T06:21:00.629Z,25.25
2018-07-28T06:25:53.505Z,25.23
2018-07-28T06:30:46.273Z,25.23
2018-07-28T06:35:38.835Z,25.16
2018-07-28T06:40:31.519Z,25.12
2018-07-28T06:45:24.244Z,25.11
2018-07-28T06:50:16.888Z,25.14
2018-07-28T06:55:09.524Z,25.18
2018-07-28T07:00:02.309Z,25.25
2018-07-28T07:04:55.392Z,25.32
2018-07-28T07:09:47.977Z,25.36
2018-07-28T07:14:40.747Z,25.46
2018-07-28T07:19:33.451Z,26.28
2018-07-28T07:24:27.037Z,28.18
2018-07-28T07:29:19.570Z,29.76
2018-07-28T07:34:12.238Z,31.10
2018-07-28T07:39:06.639Z,31.94
2018-07-28T07:43:59.216Z,32.44
2018-07-28T07:48:51.936Z,32.44
2018-07-28T07:53:44.658Z,32.63
2018-07-28T07:58:37.214Z,33.05
2018-07-28T08:03:29.822Z,33.28
2018-07-28T08:08:22.548Z,33.02
2018-07-28T08:13:15.139Z,32.61
2018-07-28T08:18:07.749Z,32.31
2018-07-28T08:23:00.310Z,32.09
2018-07-28T08:27:55.566Z,32.07
2018-07-28T08:32:48.228Z,31.98
2018-07-28T08:37:41.015Z,31.89
2018-07-28T08:42:33.633Z,31.78
2018-07-28T08:47:26.254Z,31.78
2018-07-28T08:52:18.796Z,31.73
2018-07-28T08:57:11.557Z,31.67
2018-07-28T09:02:04.150Z,31.50
2018-07-28T09:06:56.825Z,31.40
2018-07-28T09:11:49.467Z,31.32
2018-07-28T09:16:42.361Z,31.16
2018-07-28T09:21:34.925Z,31.08
2018-07-28T09:26:27.599Z,30.89
2018-07-28T09:31:20.173Z,30.49
2018-07-28T09:36:12.773Z,30.50
2018-07-28T09:41:05.343Z,30.63
2018-07-28T09:45:57.991Z,30.72
2018-07-28T09:50:50.607Z,30.94
2018-07-28T09:55:43.272Z,30.90
2018-07-28T10:00:41.583Z,31.05
2018-07-28T10:05:34.177Z,31.20
2018-07-28T10:10:26.706Z,31.25
2018-07-28T10:15:19.422Z,31.51
2018-07-28T10:20:12.003Z,31.81
2018-07-28T10:25:04.683Z,31.96
2018-07-28T10:29:57.243Z,32.01
2018-07-28T10:34:50.029Z,31.80
2018-07-28T10:39:42.530Z,31.86
2018-07-28T10:44:35.230Z,31.97
2018-07-28T10:49:27.835Z,31.95
2018-07-28T10:54:20.386Z,31.93
2018-07-28T10:59:13.114Z,31.96
2018-07-28T11:04:05.980Z,32.09
2018-07-28T11:08:58.591Z,32.21
2018-07-28T11:13:51.687Z,32.33
2018-07-28T11:18:44.333Z,32.32
2018-07-28T11:23:54.447Z,32.36
2018-07-28T11:28:47.010Z,32.44
2018-07-28T11:34:55.493Z,32.55
2018-07-28T11:40:05.830Z,32.76
2018-07-28T11:45:10.556Z,32.87
2018-07-28T11:50:03.233Z,32.82
2018-07-28T11:54:55.810Z,32.80
2018-07-28T11:59:48.583Z,32.67
2018-07-28T12:04:41.167Z,32.73
2018-07-28T12:09:33.766Z,32.94
2018-07-28T12:14:26.359Z,33.21
2018-07-28T12:19:19.005Z,33.33
2018-07-28T12:24:11.705Z,33.53
2018-07-28T12:29:04.295Z,33.61
2018-07-28T12:33:56.980Z,33.78
2018-07-28T12:38:49.533Z,33.82
2018-07-28T12:43:42.085Z,33.69
2018-07-28T12:48:34.658Z,33.74
2018-07-28T12:53:27.272Z,33.65
2018-07-28T12:58:19.885Z,33.49
2018-07-28T13:03:12.514Z,33.43
2018-07-28T13:08:05.517Z,33.44
2018-07-28T13:12:58.035Z,33.51
2018-07-28T13:17:50.688Z,33.67
2018-07-28T13:22:44.101Z,33.89
2018-07-28T13:27:36.675Z,34.00
2018-07-28T13:32:29.191Z,34.00
2018-07-28T13:37:21.721Z,34.14
2018-07-28T13:42:14.402Z,34.26
2018-07-28T13:47:07.302Z,34.29
2018-07-28T13:51:59.890Z,34.38
2018-07-28T13:56:52.445Z,34.35
2018-07-28T14:01:45.082Z,34.14
2018-07-28T14:06:37.723Z,34.08
2018-07-28T14:11:30.245Z,33.98
2018-07-28T14:16:22.828Z,33.88
2018-07-28T14:21:15.426Z,33.96
2018-07-28T14:26:07.998Z,33.97
2018-07-28T14:31:00.583Z,34.01
2018-07-28T14:35:53.253Z,34.10
2018-07-28T14:40:45.861Z,34.21
2018-07-28T14:45:38.496Z,34.26
2018-07-28T14:50:31.017Z,34.35
2018-07-28T14:55:23.634Z,34.31
2018-07-28T15:00:16.225Z,34.24
2018-07-28T15:05:08.802Z,34.14
2018-07-28T15:10:01.426Z,34.18
2018-07-28T15:14:53.994Z,34.19
2018-07-28T15:19:46.559Z,34.17
2018-07-28T15:24:39.193Z,33.96
2018-07-28T15:29:31.765Z,33.82
2018-07-28T15:34:24.393Z,33.76
2018-07-28T15:39:16.996Z,33.85
2018-07-28T15:44:09.604Z,33.93
2018-07-28T15:49:02.268Z,33.90
2018-07-28T15:53:54.830Z,33.79
2018-07-28T15:58:47.415Z,33.77
2018-07-28T16:03:39.989Z,33.79
2018-07-28T16:08:32.703Z,33.80
2018-07-28T16:13:25.321Z,33.85
2018-07-28T16:18:17.890Z,33.88
2018-07-28T16:23:10.493Z,33.90
2018-07-28T16:28:03.023Z,33.82
2018-07-28T16:32:55.568Z,33.76
2018-07-28T16:37:48.118Z,33.74
2018-07-28T16:42:40.753Z,33.70
2018-07-28T16:47:33.310Z,33.66
2018-07-28T16:52:25.853Z,33.59
2018-07-28T16:57:18.444Z,33.56
2018-07-28T17:02:11.135Z,33.57
2018-07-28T17:07:03.797Z,33.55
2018-07-28T17:11:56.420Z,33.50
2018-07-28T17:16:48.961Z,33.42
2018-07-28T17:21:41.529Z,33.35
2018-07-28T17:26:34.152Z,33.26
2018-07-28T17:31:26.728Z,32.88
2018-07-28T17:36:19.327Z,32.50
2018-07-28T17:41:11.958Z,31.82
2018-07-28T17:46:04.687Z,31.29
2018-07-28T17:50:57.295Z,31.02
2018-07-28T17:55:49.954Z,30.63
2018-07-28T18:00:42.535Z,29.97
2018-07-28T18:05:35.125Z,29.19
2018-07-28T18:10:27.684Z,28.85
2018-07-28T18:15:20.216Z,28.48
2018-07-28T18:20:12.744Z,28.45
2018-07-28T18:25:05.290Z,28.48
2018-07-28T18:29:57.850Z,28.47
2018-07-28T18:34:50.983Z,28.42
2018-07-28T18:39:43.588Z,28.33
2018-07-28T18:44:36.318Z,28.33
2018-07-28T18:49:28.986Z,28.22
2018-07-28T18:54:21.564Z,28.11
2018-07-28T18:59:14.118Z,28.01
2018-07-28T19:04:06.765Z,27.95
2018-07-28T19:09:05.084Z,27.84
2018-07-28T19:14:03.373Z,27.73
2018-07-28T19:19:01.648Z,27.71
2018-07-28T19:24:01.555Z,27.64
2018-07-28T19:28:59.968Z,27.58
2018-07-28T19:33:52.605Z,27.49
2018-07-28T19:38:45.318Z,27.48
2018-07-28T19:43:37.890Z,27.42
2018-07-28T19:48:30.549Z,27.33
2018-07-28T19:53:23.124Z,27.23
2018-07-28T19:58:15.798Z,27.11
2018-07-28T20:03:08.412Z,26.96
2018-07-28T20:08:00.973Z,26.68
2018-07-28T20:12:53.573Z,26.36
2018-07-28T20:17:46.242Z,26.22
2018-07-28T20:22:38.821Z,26.13
2018-07-28T20:27:31.416Z,26.25
2018-07-28T20:32:24.049Z,26.30
2018-07-28T20:37:16.619Z,26.35
2018-07-28T20:42:09.283Z,26.38
2018-07-28T20:47:01.872Z,26.38
2018-07-28T20:51:54.472Z,26.39
2018-07-28T20:56:47.065Z,26.36
2018-07-28T21:01:39.729Z,26.30
2018-07-28T21:06:32.298Z,26.26
2018-07-28T21:11:24.834Z,26.28
2018-07-28T21:16:17.526Z,26.33
2018-07-28T21:21:10.085Z,26.34
2018-07-28T21:26:02.631Z,26.25
2018-07-28T21:30:55.196Z,26.15
2018-07-28T21:35:47.774Z,26.12
2018-07-28T21:40:40.394Z,26.10
2018-07-28T21:45:32.943Z,26.09
2018-07-28T21:50:25.511Z,26.08
2018-07-28T21:55:18.067Z,26.14
2018-07-28T22:00:10.921Z,26.10
2018-07-28T22:05:03.639Z,26.03
2018-07-28T22:09:56.170Z,25.99
2018-07-28T22:14:48.923Z,26.00
2018-07-28T22:19:41.445Z,25.93
2018-07-28T22:24:34.001Z,25.84
2018-07-28T22:29:26.584Z,25.83
2018-07-28T22:34:19.193Z,25.77
2018-07-28T22:39:11.981Z,25.72
2018-07-28T22:44:04.607Z,25.70
2018-07-28T22:48:57.195Z,25.60
2018-07-28T22:53:49.778Z,25.52
2018-07-28T22:58:42.330Z,25.52
2018-07-28T23:03:34.907Z,25.34
2018-07-28T23:08:27.513Z,25.26
2018-07-28T23:13:20.082Z,25.21
2018-07-28T23:18:12.617Z,24.98
2018-07-28T23:23:05.207Z,24.64
2018-07-28T23:27:57.793Z,24.42
2018-07-28T23:32:50.306Z,24.26
2018-07-28T23:37:42.875Z,24.28
2018-07-28T23:42:35.475Z,24.26
2018-07-28T23:47:28.029Z,24.27
2018-07-28T23:52:20.659Z,24.20
2018-07-28T23:57:13.277Z,24.17
